Time;durP1;ratioP1;P1;durP2;ratioP2;P2;SDS_P1;SDS_P2;PMS_P1;PMS_P2;Temp;Humidity;BMP_temperature;BMP_pressure;BME280_temperature;BME280_humidity;BME280_pressure;Samples;Min_cycle;Max_cycle;Signal;HPM_P1;HPM_P2
2022/12/04 00:01:39;;;;;;;83.63;30.20;;;;;;;-145.18;100.00;46654.53;4972984;28;20038;-76
2022/12/04 00:04:05;;;;;;;86.10;31.33;;;;;;;-145.18;100.00;46654.53;4973451;28;20432;-76
2022/12/04 00:06:32;;;;;;;89.38;32.25;;;;;;;-145.18;100.00;46660.41;4972269;28;20043;-76
2022/12/04 00:08:58;;;;;;;84.53;31.42;;;;;;;-145.18;100.00;46670.16;4955995;28;20042;-76
2022/12/04 00:11:27;;;;;;;83.37;30.83;;;;;;;-145.18;100.00;46672.13;4972535;28;20050;-76
2022/12/04 00:13:53;;;;;;;82.97;30.25;;;;;;;-145.18;100.00;46672.13;4973337;28;20023;-76
2022/12/04 00:16:21;;;;;;;87.07;30.90;;;;;;;-145.18;100.00;46677.97;4972900;28;20041;-76
2022/12/04 00:18:47;;;;;;;88.70;31.60;;;;;;;-145.18;100.00;46685.78;4973308;28;20027;-76
2022/12/04 00:21:13;;;;;;;81.77;28.73;;;;;;;-145.18;100.00;46687.75;4972730;28;20113;-76
2022/12/04 00:23:40;;;;;;;84.32;31.92;;;;;;;-145.18;100.00;46687.75;4972876;28;20251;-76
2022/12/04 00:26:17;;;;;;;86.40;30.77;;;;;;;-145.18;100.00;46693.59;4972714;28;20027;-76
2022/12/04 00:28:43;;;;;;;82.82;31.15;;;;;;;-145.18;100.00;46699.47;4972770;28;20033;-76
2022/12/04 00:31:11;;;;;;;82.82;30.98;;;;;;;-145.18;100.00;46693.59;4972427;28;20062;-76
2022/12/04 00:33:37;;;;;;;94.07;31.80;;;;;;;-145.18;100.00;46689.69;4972485;28;20106;-76
2022/12/04 00:36:07;;;;;;;88.67;30.70;;;;;;;-145.18;100.00;46701.41;4972750;28;20126;-76
2022/12/04 00:38:32;;;;;;;89.13;32.08;;;;;;;-145.18;100.00;46697.50;4955164;28;20084;-76
2022/12/04 00:40:59;;;;;;;91.57;32.50;;;;;;;-145.18;100.00;46699.47;4972434;28;20515;-76
2022/12/04 00:43:25;;;;;;;83.75;31.55;;;;;;;-145.18;100.00;46697.50;4972127;28;20408;-76
2022/12/04 00:45:51;;;;;;;83.57;30.48;;;;;;;-145.18;100.00;46701.41;4972416;28;20114;-76
2022/12/04 00:48:17;;;;;;;81.20;30.73;;;;;;;-145.18;100.00;46699.47;4954754;28;20118;-76
2022/12/04 00:50:42;;;;;;;84.80;30.57;;;;;;;-145.18;100.00;46705.31;4972468;28;20054;-76
2022/12/04 00:53:08;;;;;;;83.97;30.27;;;;;;;-145.18;100.00;46701.41;4972662;28;20131;-76
2022/12/04 00:55:36;;;;;;;94.07;33.10;;;;;;;-145.18;100.00;46701.41;4972431;28;20113;-76
2022/12/04 00:58:01;;;;;;;98.55;34.28;;;;;;;-145.18;100.00;46699.47;4972201;28;20038;-76
2022/12/04 01:00:26;;;;;;;88.77;31.03;;;;;;;-145.18;100.00;46699.47;4971981;28;20491;-76
2022/12/04 01:02:52;;;;;;;87.07;31.53;;;;;;;-145.18;100.00;46699.47;4954535;28;20034;-76
2022/12/04 01:05:17;;;;;;;85.67;30.70;;;;;;;-145.18;100.00;46703.38;4971874;28;20054;-76
2022/12/04 01:07:43;;;;;;;88.87;33.73;;;;;;;-145.18;100.00;46709.22;4972045;28;20038;-76
2022/12/04 01:10:11;;;;;;;82.73;31.27;;;;;;;-145.18;100.00;46705.31;4971762;28;20076;-76
2022/12/04 01:12:36;;;;;;;93.28;33.55;;;;;;;-145.18;100.00;46703.38;4971776;28;20396;-76
2022/12/04 01:15:03;;;;;;;85.10;32.37;;;;;;;-145.18;100.00;46703.38;4971821;28;20034;-76
2022/12/04 01:17:28;;;;;;;91.75;34.17;;;;;;;-145.18;100.00;46707.28;4971532;28;20455;-76
2022/12/04 01:19:53;;;;;;;101.80;35.50;;;;;;;-145.18;100.00;46707.28;4971672;28;20142;-76
2022/12/04 01:22:19;;;;;;;88.60;32.70;;;;;;;-145.18;100.00;46709.22;4971438;28;20034;-76
2022/12/04 01:24:44;;;;;;;89.47;33.30;;;;;;;-145.18;100.00;46703.38;4971884;28;20439;-76
2022/12/04 01:27:09;;;;;;;99.53;35.80;;;;;;;-145.18;100.00;46701.41;4971649;28;20023;-76
2022/12/04 01:29:35;;;;;;;86.83;33.07;;;;;;;-145.18;100.00;46703.38;4954569;28;20129;-76
2022/12/04 01:32:00;;;;;;;89.87;33.83;;;;;;;-145.18;100.00;46715.09;4971592;28;20085;-76
2022/12/04 01:34:26;;;;;;;97.03;34.93;;;;;;;-145.18;100.00;46705.31;4971441;28;20081;-76
2022/12/04 01:36:51;;;;;;;95.50;33.63;;;;;;;-145.18;100.00;46703.38;4971768;28;20139;-76
2022/12/04 01:39:17;;;;;;;88.50;32.93;;;;;;;-145.18;100.00;46709.22;4971559;28;20086;-76
2022/12/04 01:41:42;;;;;;;90.30;33.80;;;;;;;-145.18;100.00;46717.03;4971166;28;20039;-76
2022/12/04 01:44:15;;;;;;;91.43;34.70;;;;;;;-145.18;100.00;46709.22;4971421;28;20034;-76
2022/12/04 01:46:42;;;;;;;88.90;33.90;;;;;;;-145.18;100.00;46715.09;4970856;28;20125;-76
2022/12/04 01:49:11;;;;;;;91.95;32.92;;;;;;;-145.18;100.00;46705.31;4971408;28;20030;-76
2022/12/04 01:51:41;;;;;;;95.05;35.10;;;;;;;-145.18;100.00;46724.84;4971346;28;20031;-76
2022/12/04 01:54:13;;;;;;;87.82;33.97;;;;;;;-145.18;100.00;46717.03;4971482;28;20034;-76
2022/12/04 01:56:45;;;;;;;98.72;35.03;;;;;;;-145.18;100.00;46720.94;4971204;28;20023;-76
2022/12/04 01:59:13;;;;;;;89.95;34.10;;;;;;;-145.18;100.00;46722.91;4971287;28;20118;-76
2022/12/04 02:01:45;;;;;;;93.32;34.47;;;;;;;-145.18;100.00;46724.84;4970895;28;20030;-76
2022/12/04 02:04:10;;;;;;;95.65;34.15;;;;;;;-145.18;100.00;46720.94;4953508;28;20035;-76
2022/12/04 02:06:36;;;;;;;97.37;35.57;;;;;;;-145.18;100.00;46722.91;4953904;28;20037;-76
2022/12/04 02:09:01;;;;;;;98.20;34.13;;;;;;;-145.18;100.00;46726.81;4970944;28;20105;-76
2022/12/04 02:11:36;;;;;;;92.80;33.07;;;;;;;-145.18;100.00;46720.94;4970627;28;20038;-76
2022/12/04 02:14:09;;;;;;;94.32;33.00;;;;;;;-145.18;100.00;46724.84;4971231;28;20027;-76
2022/12/04 02:17:00;;;;;;;91.50;34.08;;;;;;;-145.18;100.00;46719.00;4970700;28;20035;-76
2022/12/04 02:19:54;;;;;;;98.70;34.88;;;;;;;-145.18;100.00;46724.84;4971228;28;20035;-76
2022/12/04 02:22:46;;;;;;;93.25;34.83;;;;;;;-145.18;100.00;46722.91;4970470;28;20038;-76
2022/12/04 02:25:11;;;;;;;91.72;32.10;;;;;;;-145.18;100.00;46724.84;4970995;28;20037;-76
2022/12/04 02:27:39;;;;;;;86.80;31.37;;;;;;;-145.18;100.00;46720.94;4970970;28;20492;-76
2022/12/04 02:30:12;;;;;;;94.88;35.13;;;;;;;-145.18;100.00;46717.03;4973347;28;20034;-76
2022/12/04 02:33:02;;;;;;;92.68;33.28;;;;;;;-145.18;100.00;46720.94;4974659;28;20046;-76
2022/12/04 02:35:29;;;;;;;99.75;34.97;;;;;;;-145.18;100.00;46722.91;4974424;28;20502;-76
2022/12/04 02:38:05;;;;;;;91.10;35.38;;;;;;;-145.18;100.00;46726.81;4974728;28;20488;-76
2022/12/04 02:40:41;;;;;;;94.25;33.03;;;;;;;-145.18;100.00;46722.91;4974733;28;20128;-76
2022/12/04 02:43:14;;;;;;;96.70;34.63;;;;;;;-145.18;100.00;46732.66;4974798;28;20166;-76
2022/12/04 02:45:47;;;;;;;91.07;34.65;;;;;;;-145.18;100.00;46726.81;4974916;28;20057;-75
2022/12/04 02:48:17;;;;;;;87.85;32.17;;;;;;;-145.18;100.00;46720.94;4974114;28;20064;-76
2022/12/04 02:50:46;;;;;;;93.90;33.72;;;;;;;-145.18;100.00;46724.84;4974673;28;20424;-76
2022/12/04 02:53:34;;;;;;;96.93;36.40;;;;;;;-145.18;100.00;46719.00;4974273;28;20063;-76
2022/12/04 02:56:07;;;;;;;99.45;35.38;;;;;;;-145.18;100.00;46728.75;4974650;28;20034;-76
2022/12/04 02:58:41;;;;;;;97.40;36.42;;;;;;;-145.18;100.00;46728.75;4974037;28;20042;-76
2022/12/04 03:03:42;;;;;;;97.70;35.83;;;;;;;-145.18;100.00;46728.75;4683516;23;20066;-76
2022/12/04 03:06:10;;;;;;;106.23;36.33;;;;;;;-145.18;100.00;46728.75;4991316;28;20391;-76
2022/12/04 03:08:46;;;;;;;95.18;36.03;;;;;;;-145.18;100.00;46732.66;4993624;28;20550;-76
2022/12/04 03:11:12;;;;;;;101.75;37.30;;;;;;;-145.18;100.00;46724.84;4993880;28;20038;-75
2022/12/04 03:13:43;;;;;;;97.77;35.73;;;;;;;-145.18;100.00;46726.81;4992296;28;20033;-76
2022/12/04 03:16:15;;;;;;;89.60;33.83;;;;;;;-145.18;100.00;46728.75;4993943;28;20045;-76
2022/12/04 03:18:53;;;;;;;86.18;32.28;;;;;;;-145.18;100.00;46726.81;4993654;28;20478;-76
2022/12/04 03:21:27;;;;;;;94.95;35.88;;;;;;;-145.18;100.00;46732.66;4993901;28;20509;-76
2022/12/04 03:24:03;;;;;;;91.97;36.03;;;;;;;-145.18;100.00;46726.81;4993289;28;20034;-76
2022/12/04 03:26:51;;;;;;;99.35;37.22;;;;;;;-145.18;100.00;46730.72;4993412;28;20026;-76
2022/12/04 03:29:32;;;;;;;99.35;36.22;;;;;;;-145.18;100.00;46732.66;4993704;28;20043;-76
2022/12/04 03:32:27;;;;;;;97.75;34.45;;;;;;;-145.18;100.00;46732.66;4993305;28;20462;-76
2022/12/04 03:35:28;;;;;;;100.88;36.80;;;;;;;-145.18;100.00;46734.63;4982619;28;20034;-76
2022/12/04 03:38:03;;;;;;;95.30;34.55;;;;;;;-145.18;100.00;46728.75;4992935;28;20038;-76
2022/12/04 03:40:36;;;;;;;97.00;36.58;;;;;;;-145.18;100.00;46732.66;4992603;28;20069;-76
2022/12/04 03:43:27;;;;;;;97.00;34.58;;;;;;;-145.18;100.00;46728.75;4993014;28;20030;-76
2022/12/04 03:46:02;;;;;;;93.93;33.97;;;;;;;-145.18;100.00;46732.66;4993381;28;20814;-76
2022/12/04 03:48:34;;;;;;;74.15;27.95;;;;;;;-145.18;100.00;46728.75;4993019;28;20113;-76
2022/12/04 03:51:37;;;;;;;86.75;34.63;;;;;;;-145.18;100.00;46732.66;4993109;28;20475;-76
2022/12/04 03:54:11;;;;;;;96.80;35.70;;;;;;;-145.18;100.00;46728.75;4974503;28;20045;-76
2022/12/04 03:57:01;;;;;;;99.82;37.88;;;;;;;-145.18;100.00;46728.75;4993310;28;20026;-76
2022/12/04 03:59:33;;;;;;;95.25;33.30;;;;;;;-145.18;100.00;46726.81;4993011;28;20022;-76
2022/12/04 04:02:01;;;;;;;98.30;32.97;;;;;;;-145.18;100.00;46726.81;4992448;28;20022;-76
2022/12/04 04:04:33;;;;;;;92.13;36.70;;;;;;;-145.18;100.00;46728.75;4993065;28;20117;-76
2022/12/04 04:07:15;;;;;;;97.80;36.33;;;;;;;-145.18;100.00;46724.84;4992675;28;20034;-76
2022/12/04 04:09:46;;;;;;;94.63;36.17;;;;;;;-145.18;100.00;46732.66;4992770;28;20108;-76
2022/12/04 04:12:19;;;;;;;94.20;33.70;;;;;;;-145.18;100.00;46732.66;4992545;28;20446;-76
2022/12/04 04:25:59;;;;;;;91.18;36.35;;;;;;;-145.18;100.00;46732.66;4992619;28;20096;-76
2022/12/04 04:28:28;;;;;;;92.43;34.00;;;;;;;-145.18;100.00;46728.75;4992157;28;20068;-76
2022/12/04 04:31:02;;;;;;;87.40;33.25;;;;;;;-145.18;100.00;46732.66;4992389;28;20391;-76
2022/12/04 04:33:29;;;;;;;96.68;34.53;;;;;;;-145.18;100.00;46728.75;4992138;28;20034;-76
2022/12/04 04:36:45;;;;;;;104.70;39.55;;;;;;;-145.18;100.00;46732.66;4992325;28;20383;-76
2022/12/04 04:39:26;;;;;;;91.45;35.38;;;;;;;-145.18;100.00;46732.66;4974223;28;20113;-76
2022/12/04 04:41:57;;;;;;;93.93;35.63;;;;;;;-145.18;100.00;46732.66;4992147;28;20168;-76
2022/12/04 04:44:36;;;;;;;93.18;35.60;;;;;;;-145.18;100.00;46728.75;4992214;28;20031;-76
2022/12/04 04:47:05;;;;;;;92.70;34.53;;;;;;;-145.18;100.00;46734.63;4991513;28;20529;-76
2022/12/04 04:49:34;;;;;;;105.80;37.15;;;;;;;-145.18;100.00;46732.66;4990944;28;20049;-76
2022/12/04 04:52:00;;;;;;;96.28;36.40;;;;;;;-145.18;100.00;46732.66;4991629;28;20050;-76
2022/12/04 04:54:28;;;;;;;93.25;34.97;;;;;;;-145.18;100.00;46728.75;4991990;28;20042;-75
2022/12/04 04:56:53;;;;;;;97.70;35.53;;;;;;;-145.18;100.00;46726.81;4981405;28;20540;-75
2022/12/04 04:59:19;;;;;;;92.97;32.63;;;;;;;-145.18;100.00;46728.75;4979170;28;20051;-75
2022/12/04 05:01:45;;;;;;;94.80;35.60;;;;;;;-145.18;100.00;46732.66;4977032;28;20074;-76
2022/12/04 05:04:11;;;;;;;92.53;33.53;;;;;;;-145.18;100.00;46732.66;4978975;28;20677;-75
2022/12/04 05:06:36;;;;;;;94.20;37.83;;;;;;;-145.18;100.00;46728.75;4978437;28;20303;-75
2022/12/04 05:09:02;;;;;;;98.23;37.33;;;;;;;-145.18;100.00;46728.75;4977330;28;20031;-75
2022/12/04 05:11:27;;;;;;;94.97;34.83;;;;;;;-145.18;100.00;46728.75;4979522;28;20030;-75
2022/12/04 05:13:53;;;;;;;97.77;37.80;;;;;;;-145.18;100.00;46732.66;4977460;28;20031;-76
2022/12/04 05:16:18;;;;;;;92.03;35.03;;;;;;;-145.18;100.00;46724.84;4978370;28;20088;-75
2022/12/04 05:21:27;;;;;;;101.57;37.38;;;;;;;-145.18;100.00;46730.72;4983420;28;20076;-75
2022/12/04 05:23:53;;;;;;;90.67;36.67;;;;;;;-145.18;100.00;46732.66;4989243;28;20046;-75
2022/12/04 05:26:18;;;;;;;96.53;34.30;;;;;;;-145.18;100.00;46732.66;4990421;28;20426;-75
2022/12/04 05:28:43;;;;;;;94.80;35.03;;;;;;;-145.18;100.00;46732.66;4990540;28;20071;-75
2022/12/04 05:31:10;;;;;;;98.47;37.17;;;;;;;-145.18;100.00;46728.75;4989607;28;20537;-75
2022/12/04 05:33:35;;;;;;;86.67;33.20;;;;;;;-145.18;100.00;46726.81;4990303;28;20053;-75
2022/12/04 05:36:09;;;;;;;95.00;35.13;;;;;;;-145.18;100.00;46728.75;4991015;28;20109;-75
2022/12/04 05:38:35;;;;;;;87.28;34.13;;;;;;;-145.18;100.00;46734.63;4991125;28;20022;-75
2022/12/04 05:41:02;;;;;;;96.68;35.70;;;;;;;-145.18;100.00;46726.81;4989881;28;20786;-75
2022/12/04 05:43:29;;;;;;;94.57;36.08;;;;;;;-145.18;100.00;46732.66;4989545;28;20109;-75
2022/12/04 05:45:54;;;;;;;93.07;33.88;;;;;;;-145.18;100.00;46724.84;4989571;28;20034;-75
2022/12/04 05:48:19;;;;;;;99.37;36.67;;;;;;;-145.18;100.00;46728.75;4989120;28;20114;-75
2022/12/04 05:50:45;;;;;;;83.33;33.00;;;;;;;-145.18;100.00;46734.63;4990485;28;20097;-75
2022/12/04 05:53:10;;;;;;;88.90;33.10;;;;;;;-145.18;100.00;46734.63;4990872;28;20061;-75
2022/12/04 05:55:36;;;;;;;94.67;35.30;;;;;;;-145.18;100.00;46726.81;4991368;28;20023;-75
2022/12/04 05:58:02;;;;;;;90.83;35.60;;;;;;;-145.18;100.00;46726.81;4991034;28;20058;-74
2022/12/04 06:00:28;;;;;;;92.47;36.83;;;;;;;-145.18;100.00;46732.66;4991478;28;20027;-75
2022/12/04 06:02:53;;;;;;;90.30;35.88;;;;;;;-145.18;100.00;46734.63;4990945;28;20057;-75
2022/12/04 06:05:18;;;;;;;94.83;35.33;;;;;;;-145.18;100.00;46728.75;4991507;28;20117;-75
2022/12/04 06:07:44;;;;;;;94.53;37.47;;;;;;;-145.18;100.00;46732.66;4991784;28;20042;-74
2022/12/04 06:10:09;;;;;;;94.73;35.03;;;;;;;-145.18;100.00;46734.63;4991825;28;20034;-75
2022/12/04 06:12:35;;;;;;;88.77;34.73;;;;;;;-145.18;100.00;46730.72;4991524;28;20065;-75
2022/12/04 06:15:00;;;;;;;93.57;34.20;;;;;;;-145.18;100.00;46728.75;4992101;28;20049;-75
2022/12/04 06:17:26;;;;;;;99.63;38.07;;;;;;;-145.18;100.00;46732.66;4991566;28;20398;-75
2022/12/04 06:19:52;;;;;;;84.73;33.90;;;;;;;-145.18;100.00;46726.81;4991690;28;20049;-75
2022/12/04 06:22:17;;;;;;;97.63;36.03;;;;;;;-145.18;100.00;46728.75;4991777;28;20471;-74
2022/12/04 06:24:43;;;;;;;92.00;34.20;;;;;;;-145.18;100.00;46728.75;4991117;28;20035;-75
2022/12/04 06:27:08;;;;;;;93.27;37.20;;;;;;;-145.18;100.00;46726.81;4987117;28;20042;-74
2022/12/04 06:29:33;;;;;;;94.50;34.27;;;;;;;-145.18;100.00;46728.75;4989589;28;20129;-74
2022/12/04 06:31:59;;;;;;;89.10;35.07;;;;;;;-145.18;100.00;46728.75;4988499;28;20034;-74
2022/12/04 06:34:24;;;;;;;92.50;36.57;;;;;;;-145.18;100.00;46732.66;4973606;28;20042;-75
2022/12/04 06:36:49;;;;;;;102.93;37.60;;;;;;;-145.18;100.00;46732.66;4990688;28;20188;-74
2022/12/04 06:39:15;;;;;;;95.53;36.83;;;;;;;-145.18;100.00;46728.75;4990738;28;20038;-74
2022/12/04 06:41:40;;;;;;;96.70;35.33;;;;;;;-145.18;100.00;46724.84;4990857;28;20042;-75
2022/12/04 06:44:06;;;;;;;94.50;34.07;;;;;;;-145.18;100.00;46728.75;4989724;28;20045;-74
2022/12/04 06:46:32;;;;;;;92.57;34.07;;;;;;;-145.18;100.00;46726.81;4990928;28;20041;-75
2022/12/04 06:49:00;;;;;;;94.45;37.58;;;;;;;-145.18;100.00;46726.81;4973098;28;20510;-74
2022/12/04 06:51:31;;;;;;;99.43;35.92;;;;;;;-145.18;100.00;46724.84;4990586;28;20037;-75
2022/12/04 06:53:57;;;;;;;94.80;34.72;;;;;;;-145.18;100.00;46734.63;4990377;28;20031;-75
2022/12/04 06:56:26;;;;;;;94.72;33.83;;;;;;;-145.18;100.00;46732.66;4990254;28;20034;-74
2022/12/04 06:58:54;;;;;;;93.57;34.20;;;;;;;-145.18;100.00;46724.84;4989240;28;20105;-74
2022/12/04 07:01:23;;;;;;;94.70;36.92;;;;;;;-145.18;100.00;46726.81;4989312;28;20092;-74
2022/12/04 07:03:49;;;;;;;90.70;35.00;;;;;;;-145.18;100.00;46726.81;4987735;28;20470;-74
2022/12/04 07:06:17;;;;;;;94.80;36.37;;;;;;;-145.18;100.00;46732.66;4990056;28;20034;-74
2022/12/04 07:08:45;;;;;;;104.00;38.35;;;;;;;-145.18;100.00;46724.84;4989449;28;20125;-74
2022/12/04 07:11:12;;;;;;;100.43;36.75;;;;;;;-145.18;100.00;46728.75;4989804;28;20038;-75
2022/12/04 07:13:38;;;;;;;87.88;34.80;;;;;;;-145.18;100.00;46726.81;4990355;28;20050;-75
2022/12/04 07:16:06;;;;;;;94.53;32.50;;;;;;;-145.18;100.00;46732.66;4991040;28;20131;-74
2022/12/04 07:18:33;;;;;;;91.10;33.83;;;;;;;-145.18;100.00;46728.75;4993935;28;20097;-74
2022/12/04 07:20:59;;;;;;;95.45;37.20;;;;;;;-145.18;100.00;46726.81;4983223;28;20483;-74
2022/12/04 07:23:25;;;;;;;91.40;33.47;;;;;;;-145.18;100.00;46736.56;4984392;28;20030;-74
2022/12/04 07:25:50;;;;;;;100.87;36.27;;;;;;;-145.18;100.00;46732.66;4977414;28;20038;-74
2022/12/04 07:28:16;;;;;;;96.20;35.57;;;;;;;-145.18;100.00;46732.66;4973852;28;20029;-74
2022/12/04 07:30:41;;;;;;;89.50;35.47;;;;;;;-145.18;100.00;46728.75;4974071;28;20495;-75
2022/12/04 07:33:07;;;;;;;94.47;37.50;;;;;;;-145.18;100.00;46728.75;4972749;28;20060;-74
2022/12/04 07:35:33;;;;;;;93.72;37.42;;;;;;;-145.18;100.00;46734.63;4973830;28;20038;-73
2022/12/04 07:37:58;;;;;;;93.07;35.73;;;;;;;-145.18;100.00;46728.75;4974010;28;20035;-75
2022/12/04 07:40:23;;;;;;;89.40;34.43;;;;;;;-145.18;100.00;46728.75;4986591;28;20109;-75
2022/12/04 07:42:49;;;;;;;87.57;34.87;;;;;;;-145.18;100.00;46728.75;4993562;28;20034;-75
2022/12/04 07:45:14;;;;;;;81.50;32.97;;;;;;;-145.18;100.00;46726.81;4994308;28;20029;-75
2022/12/04 07:47:39;;;;;;;91.30;35.43;;;;;;;-145.18;100.00;46732.66;4993703;28;20125;-75
2022/12/04 07:50:05;;;;;;;87.93;34.33;;;;;;;-145.18;100.00;46728.75;4993101;28;20038;-75
2022/12/04 07:52:35;;;;;;;87.23;34.67;;;;;;;-145.18;100.00;46736.56;4991946;28;20510;-75
2022/12/04 07:55:01;;;;;;;84.45;33.90;;;;;;;-145.18;100.00;46736.56;4991936;28;20264;-75
2022/12/04 07:57:27;;;;;;;87.67;34.60;;;;;;;-145.18;100.00;46734.63;4991438;28;20531;-76
2022/12/04 07:59:52;;;;;;;90.63;35.13;;;;;;;-145.18;100.00;46726.81;4991919;28;20030;-75
2022/12/04 08:02:17;;;;;;;83.23;32.53;;;;;;;-145.18;100.00;46734.63;4991999;28;20092;-75
2022/12/04 08:04:43;;;;;;;87.07;34.17;;;;;;;-145.18;100.00;46732.66;4991640;28;20117;-75
2022/12/04 08:07:08;;;;;;;86.40;32.10;;;;;;;-145.18;100.00;46728.75;4991656;28;20034;-75
2022/12/04 08:09:33;;;;;;;84.20;32.77;;;;;;;-145.18;100.00;46734.63;4991487;28;20045;-75
2022/12/04 08:11:59;;;;;;;84.73;34.03;;;;;;;-145.18;100.00;46734.63;4991674;28;20636;-75
2022/12/04 08:14:24;;;;;;;89.33;35.20;;;;;;;-145.18;100.00;46726.81;4990444;28;20455;-75
2022/12/04 08:16:49;;;;;;;91.83;35.30;;;;;;;-145.18;100.00;46724.84;4990351;28;20035;-75
2022/12/04 08:19:15;;;;;;;78.77;31.13;;;;;;;-145.18;100.00;46726.81;4991595;28;20062;-75
2022/12/04 08:21:40;;;;;;;88.00;34.80;;;;;;;-145.18;100.00;46732.66;4990360;28;20474;-75
2022/12/04 08:24:05;;;;;;;91.97;37.37;;;;;;;-145.18;100.00;46724.84;4990944;28;20454;-75
2022/12/04 08:26:32;;;;;;;56.73;22.30;;;;;;;-145.18;100.00;46724.84;4990098;28;20109;-75
2022/12/04 08:29:02;;;;;;;76.95;31.55;;;;;;;-145.18;100.00;46728.75;4991029;28;20117;-75
2022/12/04 08:31:31;;;;;;;83.10;32.67;;;;;;;-145.18;100.00;46728.75;4990222;28;20450;-75
2022/12/04 08:33:57;;;;;;;87.63;33.72;;;;;;;-145.18;100.00;46726.81;4990928;28;20390;-75
2022/12/04 08:36:24;;;;;;;81.85;32.92;;;;;;;-145.18;100.00;46726.81;4991580;28;20038;-75
2022/12/04 08:38:49;;;;;;;86.90;33.55;;;;;;;-145.18;100.00;46724.84;4991178;28;20038;-75
2022/12/04 08:41:18;;;;;;;87.17;35.03;;;;;;;-145.18;100.00;46726.81;4991209;28;20041;-75
2022/12/04 08:43:43;;;;;;;80.38;31.77;;;;;;;-145.18;100.00;46724.84;4991118;28;20109;-75
2022/12/04 08:46:11;;;;;;;77.13;32.57;;;;;;;-145.18;100.00;46724.84;4990434;28;20502;-75
2022/12/04 08:48:37;;;;;;;84.47;31.63;;;;;;;-145.18;100.00;46720.94;4990827;28;20089;-76
2022/12/04 08:51:03;;;;;;;78.80;31.80;;;;;;;-145.18;100.00;46728.75;4990687;28;20042;-75
2022/12/04 08:53:29;;;;;;;82.05;30.85;;;;;;;-145.18;100.00;46724.84;4991473;28;20549;-75
2022/12/04 08:55:55;;;;;;;74.53;31.10;;;;;;;-145.18;100.00;46722.91;4990868;28;20034;-75
2022/12/04 08:58:22;;;;;;;79.47;31.92;;;;;;;-145.18;100.00;46726.81;4991636;28;20038;-75
2022/12/04 09:00:47;;;;;;;81.82;32.55;;;;;;;-145.18;100.00;46720.94;4996096;28;20041;-75
2022/12/04 09:03:15;;;;;;;77.17;32.57;;;;;;;-145.18;100.00;46722.91;4995737;28;20042;-75
2022/12/04 09:05:42;;;;;;;81.47;31.98;;;;;;;-145.18;100.00;46724.84;4991307;28;20034;-75
2022/12/04 09:08:07;;;;;;;77.75;30.83;;;;;;;-145.18;100.00;46720.94;4990551;28;20553;-75
2022/12/04 09:10:34;;;;;;;73.17;30.83;;;;;;;-145.18;100.00;46720.94;4991343;28;20034;-75
2022/12/04 09:13:00;;;;;;;82.70;32.20;;;;;;;-145.18;100.00;46719.00;4991163;28;20081;-76
2022/12/04 09:15:25;;;;;;;76.37;29.87;;;;;;;-145.18;100.00;46724.84;4991508;28;20046;-75
2022/12/04 09:17:51;;;;;;;76.40;30.60;;;;;;;-145.18;100.00;46720.94;4990995;28;20125;-76
2022/12/04 09:20:16;;;;;;;80.03;30.97;;;;;;;-145.18;100.00;46717.03;4991434;28;20030;-75
2022/12/04 09:22:42;;;;;;;83.30;32.50;;;;;;;-145.18;100.00;46720.94;4990003;28;20093;-75
2022/12/04 09:25:07;;;;;;;73.43;30.20;;;;;;;-145.18;100.00;46715.09;4989414;28;20123;-75
2022/12/04 09:27:37;;;;;;;85.03;32.00;;;;;;;-145.18;100.00;46711.19;4990395;28;20065;-75
2022/12/04 09:30:05;;;;;;;78.93;31.45;;;;;;;-145.18;100.00;46713.13;4991077;28;20041;-76
2022/12/04 09:32:30;;;;;;;72.70;30.05;;;;;;;-145.18;100.00;46711.19;4990993;28;20053;-75
2022/12/04 09:34:56;;;;;;;75.17;31.03;;;;;;;-145.18;100.00;46707.28;4990894;28;20031;-74
2022/12/04 09:37:21;;;;;;;72.27;28.37;;;;;;;-145.18;100.00;46703.38;4989657;28;20180;-74
2022/12/04 09:39:46;;;;;;;77.70;30.90;;;;;;;-145.18;100.00;46693.59;4990838;28;20045;-74
2022/12/04 09:42:15;;;;;;;71.57;29.07;;;;;;;-145.18;100.00;46691.66;4990683;28;20038;-75
2022/12/04 09:44:50;;;;;;;74.07;29.80;;;;;;;-145.18;100.00;46691.66;4990494;28;20022;-75
2022/12/04 09:47:24;;;;;;;69.68;29.23;;;;;;;-145.18;100.00;46687.75;4987308;28;20034;-75
2022/12/04 09:49:58;;;;;;;73.03;29.05;;;;;;;-145.18;100.00;46685.78;4990799;28;20380;-74
2022/12/04 09:52:44;;;;;;;75.45;30.58;;;;;;;-145.18;100.00;46676.03;4990741;28;20519;-74
2022/12/04 09:55:17;;;;;;;65.47;23.58;;;;;;;-145.18;100.00;46674.06;4990677;28;20511;-74
2022/12/04 09:57:46;;;;;;;73.57;30.00;;;;;;;-145.18;100.00;46650.63;4990740;28;20034;-75
2022/12/04 10:00:17;;;;;;;83.55;29.92;;;;;;;-145.18;100.00;46656.50;4990110;28;20036;-75
2022/12/04 10:02:54;;;;;;;80.30;29.17;;;;;;;-145.18;100.00;46652.59;4990273;28;20054;-74
2022/12/04 10:06:01;;;;;;;67.20;28.55;;;;;;;-145.18;100.00;46635.00;4990548;28;20038;-74
2022/12/04 10:08:34;;;;;;;66.53;26.60;;;;;;;-145.18;100.00;46621.31;4959959;28;20414;-75
2022/12/04 10:11:26;;;;;;;80.13;32.72;;;;;;;-145.18;100.00;46625.22;4989744;28;20136;-74
2022/12/04 10:14:15;;;;;;;91.65;36.53;;;;;;;-145.18;100.00;46615.47;4990198;28;20117;-75
2022/12/04 10:16:51;;;;;;;72.15;28.55;;;;;;;-145.18;100.00;46615.47;4990298;28;20030;-75
2022/12/04 10:19:48;;;;;;;74.90;29.95;;;;;;;-145.18;100.00;46615.47;4990475;28;20034;-75
2022/12/04 10:22:26;;;;;;;70.93;28.77;;;;;;;-145.18;100.00;46607.66;4990218;28;20034;-74
2022/12/04 10:24:55;;;;;;;68.70;26.63;;;;;;;-145.18;100.00;46601.78;4989956;28;20069;-75
2022/12/04 10:27:33;;;;;;;72.40;29.23;;;;;;;-145.18;100.00;46597.88;4990309;28;20501;-75
2022/12/04 10:30:12;;;;;;;62.60;24.98;;;;;;;-145.18;100.00;46595.94;4990135;28;20031;-75
2022/12/04 10:32:38;;;;;;;58.67;26.52;;;;;;;-145.18;100.00;46592.03;4990384;28;20573;-75
2022/12/04 10:35:25;;;;;;;68.07;27.87;;;;;;;-145.18;100.00;46590.06;4988608;28;20043;-75
2022/12/04 10:37:57;;;;;;;73.35;28.20;;;;;;;-145.18;100.00;46593.97;4990406;28;20073;-75
2022/12/04 10:40:35;;;;;;;67.10;26.48;;;;;;;-145.18;100.00;46597.88;4990123;28;20118;-75
2022/12/04 10:43:17;;;;;;;63.05;25.63;;;;;;;-145.18;100.00;46595.94;4988340;28;20034;-75
2022/12/04 10:45:42;;;;;;;65.68;27.70;;;;;;;-145.18;100.00;46592.03;4989588;28;20438;-75
2022/12/04 10:48:18;;;;;;;62.67;27.03;;;;;;;-145.18;100.00;46597.88;4989835;28;20038;-75
2022/12/04 10:50:44;;;;;;;60.63;25.67;;;;;;;-145.18;100.00;46595.94;4991879;28;20072;-75
2022/12/04 10:53:13;;;;;;;62.27;24.97;;;;;;;-145.18;100.00;46597.88;4993753;28;20633;-75
2022/12/04 10:55:39;;;;;;;59.75;22.02;;;;;;;-145.18;100.00;46590.06;4993917;28;20026;-75
2022/12/04 10:58:16;;;;;;;51.63;21.03;;;;;;;-145.18;100.00;46593.97;4993535;28;20057;-75
2022/12/04 11:00:46;;;;;;;49.20;19.80;;;;;;;-145.18;100.00;46592.03;4993618;28;20402;-75
2022/12/04 11:03:24;;;;;;;54.90;19.02;;;;;;;-145.18;100.00;46590.06;4993366;28;20207;-75
2022/12/04 11:06:01;;;;;;;57.92;20.60;;;;;;;-145.18;100.00;46590.06;4993750;28;20030;-75
2022/12/04 11:08:39;;;;;;;54.55;21.25;;;;;;;-145.18;100.00;46590.06;4993412;28;20096;-75
2022/12/04 11:11:11;;;;;;;55.47;23.15;;;;;;;-145.18;100.00;46595.94;4993677;28;20475;-75
2022/12/04 11:13:37;;;;;;;54.88;22.20;;;;;;;-145.18;100.00;46593.97;4987388;28;20030;-75
2022/12/04 11:16:02;;;;;;;51.20;21.17;;;;;;;-145.18;100.00;46597.88;4984775;28;20471;-75
2022/12/04 11:18:34;;;;;;;51.40;20.90;;;;;;;-145.18;100.00;46640.88;4992780;28;20479;-75
2022/12/04 11:21:12;;;;;;;53.47;22.30;;;;;;;-145.18;100.00;46640.88;4993242;28;20018;-75
2022/12/04 11:23:44;;;;;;;46.22;17.40;;;;;;;-145.18;100.00;46640.88;4993430;28;20034;-75